sensor_id;sensor_type;location;lat;lon;timestamp;P1;durP1;ratioP1;P2;durP2;ratioP2
64297;SDS011;50639;53.270;7.956;2023-02-01T00:04:25;31.48;;;7.07;;
64297;SDS011;50639;53.270;7.956;2023-02-01T00:06:50;26.92;;;5.70;;
64297;SDS011;50639;53.270;7.956;2023-02-01T00:09:16;39.50;;;6.57;;
64297;SDS011;50639;53.270;7.956;2023-02-01T00:11:41;36.83;;;7.15;;
64297;SDS011;50639;53.270;7.956;2023-02-01T00:14:07;36.88;;;7.28;;
64297;SDS011;50639;53.270;7.956;2023-02-01T00:16:33;26.98;;;5.85;;
64297;SDS011;50639;53.270;7.956;2023-02-01T00:19:00;29.13;;;6.18;;
64297;SDS011;50639;53.270;7.956;2023-02-01T00:21:28;32.47;;;6.93;;
64297;SDS011;50639;53.270;7.956;2023-02-01T00:23:55;36.55;;;6.70;;
64297;SDS011;50639;53.270;7.956;2023-02-01T00:28:56;30.73;;;7.47;;
64297;SDS011;50639;53.270;7.956;2023-02-01T00:31:22;30.98;;;6.40;;
64297;SDS011;50639;53.270;7.956;2023-02-01T00:33:51;33.05;;;7.25;;
64297;SDS011;50639;53.270;7.956;2023-02-01T00:36:16;35.38;;;6.97;;
64297;SDS011;50639;53.270;7.956;2023-02-01T00:38:44;30.67;;;6.10;;
64297;SDS011;50639;53.270;7.956;2023-02-01T00:41:13;29.75;;;6.63;;
64297;SDS011;50639;53.270;7.956;2023-02-01T00:43:41;34.40;;;6.65;;
64297;SDS011;50639;53.270;7.956;2023-02-01T00:46:07;36.08;;;7.05;;
64297;SDS011;50639;53.270;7.956;2023-02-01T00:48:33;27.15;;;5.20;;
64297;SDS011;50639;53.270;7.956;2023-02-01T00:51:02;27.75;;;6.18;;
64297;SDS011;50639;53.270;7.956;2023-02-01T00:53:30;34.58;;;6.10;;
64297;SDS011;50639;53.270;7.956;2023-02-01T00:55:56;37.25;;;6.35;;
64297;SDS011;50639;53.270;7.956;2023-02-01T00:58:22;36.78;;;6.88;;
64297;SDS011;50639;53.270;7.956;2023-02-01T01:00:59;38.00;;;6.85;;
64297;SDS011;50639;53.270;7.956;2023-02-01T01:03:34;24.58;;;6.35;;
64297;SDS011;50639;53.270;7.956;2023-02-01T01:06:03;32.03;;;5.70;;
64297;SDS011;50639;53.270;7.956;2023-02-01T01:08:31;32.25;;;7.20;;
64297;SDS011;50639;53.270;7.956;2023-02-01T01:10:56;34.92;;;7.07;;
64297;SDS011;50639;53.270;7.956;2023-02-01T01:13:22;31.38;;;6.22;;
64297;SDS011;50639;53.270;7.956;2023-02-01T01:15:48;45.63;;;7.15;;
64297;SDS011;50639;53.270;7.956;2023-02-01T01:18:13;36.17;;;5.90;;
64297;SDS011;50639;53.270;7.956;2023-02-01T01:20:39;33.50;;;6.72;;
64297;SDS011;50639;53.270;7.956;2023-02-01T01:23:06;28.23;;;6.53;;
64297;SDS011;50639;53.270;7.956;2023-02-01T01:25:36;29.52;;;6.68;;
64297;SDS011;50639;53.270;7.956;2023-02-01T01:28:03;39.33;;;6.68;;
64297;SDS011;50639;53.270;7.956;2023-02-01T01:30:29;35.75;;;7.70;;
64297;SDS011;50639;53.270;7.956;2023-02-01T01:32:54;36.88;;;6.70;;
64297;SDS011;50639;53.270;7.956;2023-02-01T01:35:20;34.05;;;6.75;;
64297;SDS011;50639;53.270;7.956;2023-02-01T01:37:45;31.98;;;6.93;;
64297;SDS011;50639;53.270;7.956;2023-02-01T01:40:11;27.55;;;6.53;;
64297;SDS011;50639;53.270;7.956;2023-02-01T01:42:37;39.22;;;7.15;;
64297;SDS011;50639;53.270;7.956;2023-02-01T01:45:16;29.33;;;7.05;;
64297;SDS011;50639;53.270;7.956;2023-02-01T01:47:44;30.48;;;6.30;;
64297;SDS011;50639;53.270;7.956;2023-02-01T01:50:14;26.25;;;5.43;;
64297;SDS011;50639;53.270;7.956;2023-02-01T01:52:43;32.08;;;6.63;;
64297;SDS011;50639;53.270;7.956;2023-02-01T01:55:14;33.88;;;6.32;;
64297;SDS011;50639;53.270;7.956;2023-02-01T01:57:43;32.65;;;6.90;;
64297;SDS011;50639;53.270;7.956;2023-02-01T02:00:15;36.70;;;6.13;;
64297;SDS011;50639;53.270;7.956;2023-02-01T02:02:45;29.92;;;6.00;;
64297;SDS011;50639;53.270;7.956;2023-02-01T02:05:13;30.23;;;6.43;;
64297;SDS011;50639;53.270;7.956;2023-02-01T02:07:41;24.95;;;5.88;;
64297;SDS011;50639;53.270;7.956;2023-02-01T02:10:11;28.83;;;5.70;;
64297;SDS011;50639;53.270;7.956;2023-02-01T02:12:38;30.27;;;5.90;;
64297;SDS011;50639;53.270;7.956;2023-02-01T02:15:06;37.00;;;6.28;;
64297;SDS011;50639;53.270;7.956;2023-02-01T02:40:07;26.38;;;6.10;;
64297;SDS011;50639;53.270;7.956;2023-02-01T02:45:49;28.40;;;5.97;;
64297;SDS011;50639;53.270;7.956;2023-02-01T02:51:12;25.17;;;5.82;;
64297;SDS011;50639;53.270;7.956;2023-02-01T02:57:03;29.00;;;6.03;;
64297;SDS011;50639;53.270;7.956;2023-02-01T02:59:51;36.30;;;7.45;;
64297;SDS011;50639;53.270;7.956;2023-02-01T03:02:36;24.90;;;6.18;;
64297;SDS011;50639;53.270;7.956;2023-02-01T03:05:22;29.75;;;5.63;;
64297;SDS011;50639;53.270;7.956;2023-02-01T03:12:55;28.63;;;5.72;;
64297;SDS011;50639;53.270;7.956;2023-02-01T03:18:02;30.70;;;6.05;;
64297;SDS011;50639;53.270;7.956;2023-02-01T03:20:32;25.77;;;5.57;;
64297;SDS011;50639;53.270;7.956;2023-02-01T03:22:58;29.33;;;6.18;;
64297;SDS011;50639;53.270;7.956;2023-02-01T03:25:25;22.88;;;5.55;;
64297;SDS011;50639;53.270;7.956;2023-02-01T03:28:06;22.92;;;5.03;;
64297;SDS011;50639;53.270;7.956;2023-02-01T03:30:34;12.48;;;2.97;;
64297;SDS011;50639;53.270;7.956;2023-02-01T03:33:04;18.88;;;3.78;;
64297;SDS011;50639;53.270;7.956;2023-02-01T03:35:40;18.27;;;3.50;;
64297;SDS011;50639;53.270;7.956;2023-02-01T03:40:50;23.13;;;4.57;;
64297;SDS011;50639;53.270;7.956;2023-02-01T03:43:21;22.85;;;4.55;;
64297;SDS011;50639;53.270;7.956;2023-02-01T03:45:50;21.10;;;4.50;;
64297;SDS011;50639;53.270;7.956;2023-02-01T03:48:22;36.55;;;6.07;;
64297;SDS011;50639;53.270;7.956;2023-02-01T03:50:49;33.97;;;6.05;;
64297;SDS011;50639;53.270;7.956;2023-02-01T03:53:20;30.25;;;5.80;;
64297;SDS011;50639;53.270;7.956;2023-02-01T03:55:49;31.60;;;6.15;;
64297;SDS011;50639;53.270;7.956;2023-02-01T03:58:19;28.98;;;5.30;;
64297;SDS011;50639;53.270;7.956;2023-02-01T04:00:54;24.30;;;5.75;;
64297;SDS011;50639;53.270;7.956;2023-02-01T04:03:21;31.92;;;5.68;;
64297;SDS011;50639;53.270;7.956;2023-02-01T04:05:48;31.38;;;6.47;;
64297;SDS011;50639;53.270;7.956;2023-02-01T04:08:15;34.17;;;6.93;;
64297;SDS011;50639;53.270;7.956;2023-02-01T04:10:40;27.77;;;5.97;;
64297;SDS011;50639;53.270;7.956;2023-02-01T04:13:07;32.50;;;5.83;;
64297;SDS011;50639;53.270;7.956;2023-02-01T04:15:32;26.13;;;5.65;;
64297;SDS011;50639;53.270;7.956;2023-02-01T04:17:59;32.67;;;6.45;;
64297;SDS011;50639;53.270;7.956;2023-02-01T04:20:25;32.70;;;6.88;;
64297;SDS011;50639;53.270;7.956;2023-02-01T04:22:50;30.48;;;6.65;;
64297;SDS011;50639;53.270;7.956;2023-02-01T04:25:16;31.52;;;7.32;;
64297;SDS011;50639;53.270;7.956;2023-02-01T04:27:45;35.15;;;5.70;;
64297;SDS011;50639;53.270;7.956;2023-02-01T04:30:11;32.42;;;6.28;;
64297;SDS011;50639;53.270;7.956;2023-02-01T04:32:38;29.52;;;5.55;;
64297;SDS011;50639;53.270;7.956;2023-02-01T04:35:04;34.80;;;6.80;;
64297;SDS011;50639;53.270;7.956;2023-02-01T04:37:30;31.30;;;6.05;;
64297;SDS011;50639;53.270;7.956;2023-02-01T04:40:02;35.20;;;6.28;;
64297;SDS011;50639;53.270;7.956;2023-02-01T04:42:28;22.80;;;4.72;;
64297;SDS011;50639;53.270;7.956;2023-02-01T04:44:54;29.33;;;6.15;;
64297;SDS011;50639;53.270;7.956;2023-02-01T04:47:19;21.02;;;4.85;;
64297;SDS011;50639;53.270;7.956;2023-02-01T04:49:45;20.30;;;4.25;;
64297;SDS011;50639;53.270;7.956;2023-02-01T04:52:10;23.67;;;5.22;;
64297;SDS011;50639;53.270;7.956;2023-02-01T04:54:35;18.02;;;3.85;;
64297;SDS011;50639;53.270;7.956;2023-02-01T04:57:02;16.37;;;4.87;;
64297;SDS011;50639;53.270;7.956;2023-02-01T04:59:28;18.50;;;4.88;;
64297;SDS011;50639;53.270;7.956;2023-02-01T05:01:53;24.63;;;4.70;;
64297;SDS011;50639;53.270;7.956;2023-02-01T05:04:19;23.35;;;4.10;;
64297;SDS011;50639;53.270;7.956;2023-02-01T05:06:45;19.67;;;4.60;;
64297;SDS011;50639;53.270;7.956;2023-02-01T05:09:10;17.25;;;4.28;;
64297;SDS011;50639;53.270;7.956;2023-02-01T05:11:36;22.17;;;4.35;;
64297;SDS011;50639;53.270;7.956;2023-02-01T05:14:20;25.10;;;5.20;;
64297;SDS011;50639;53.270;7.956;2023-02-01T05:16:45;23.92;;;5.25;;
64297;SDS011;50639;53.270;7.956;2023-02-01T05:19:11;25.67;;;5.22;;
64297;SDS011;50639;53.270;7.956;2023-02-01T05:21:36;29.63;;;6.63;;
64297;SDS011;50639;53.270;7.956;2023-02-01T05:24:02;27.67;;;5.93;;
64297;SDS011;50639;53.270;7.956;2023-02-01T05:26:45;29.48;;;5.15;;
64297;SDS011;50639;53.270;7.956;2023-02-01T05:29:11;26.55;;;5.65;;
64297;SDS011;50639;53.270;7.956;2023-02-01T05:31:37;28.88;;;6.18;;
64297;SDS011;50639;53.270;7.956;2023-02-01T05:34:04;35.08;;;6.45;;
64297;SDS011;50639;53.270;7.956;2023-02-01T05:36:30;29.17;;;6.40;;
64297;SDS011;50639;53.270;7.956;2023-02-01T05:38:57;34.10;;;7.03;;
64297;SDS011;50639;53.270;7.956;2023-02-01T05:41:22;34.67;;;7.55;;
64297;SDS011;50639;53.270;7.956;2023-02-01T05:43:48;34.50;;;6.75;;
64297;SDS011;50639;53.270;7.956;2023-02-01T05:46:13;37.63;;;6.47;;
64297;SDS011;50639;53.270;7.956;2023-02-01T05:48:39;33.25;;;6.60;;
64297;SDS011;50639;53.270;7.956;2023-02-01T05:51:05;24.75;;;5.60;;
64297;SDS011;50639;53.270;7.956;2023-02-01T05:53:30;34.20;;;6.28;;
64297;SDS011;50639;53.270;7.956;2023-02-01T05:55:56;30.55;;;6.47;;
64297;SDS011;50639;53.270;7.956;2023-02-01T05:58:22;30.10;;;6.60;;
64297;SDS011;50639;53.270;7.956;2023-02-01T06:00:47;28.52;;;4.70;;
64297;SDS011;50639;53.270;7.956;2023-02-01T06:03:13;27.45;;;5.13;;
64297;SDS011;50639;53.270;7.956;2023-02-01T06:05:38;25.90;;;5.65;;
64297;SDS011;50639;53.270;7.956;2023-02-01T06:08:04;22.02;;;5.55;;
64297;SDS011;50639;53.270;7.956;2023-02-01T06:10:29;27.58;;;6.30;;
64297;SDS011;50639;53.270;7.956;2023-02-01T06:12:55;29.83;;;5.75;;
64297;SDS011;50639;53.270;7.956;2023-02-01T06:15:20;21.08;;;4.88;;
64297;SDS011;50639;53.270;7.956;2023-02-01T06:17:46;31.73;;;5.32;;
64297;SDS011;50639;53.270;7.956;2023-02-01T06:20:13;36.63;;;5.78;;
64297;SDS011;50639;53.270;7.956;2023-02-01T06:22:39;23.60;;;5.15;;
64297;SDS011;50639;53.270;7.956;2023-02-01T06:25:05;28.15;;;6.68;;
64297;SDS011;50639;53.270;7.956;2023-02-01T06:27:32;30.70;;;5.70;;
64297;SDS011;50639;53.270;7.956;2023-02-01T06:29:58;31.80;;;5.63;;
64297;SDS011;50639;53.270;7.956;2023-02-01T06:32:24;33.28;;;6.97;;
64297;SDS011;50639;53.270;7.956;2023-02-01T06:34:49;31.48;;;6.45;;
64297;SDS011;50639;53.270;7.956;2023-02-01T06:39:43;40.53;;;6.20;;
64297;SDS011;50639;53.270;7.956;2023-02-01T06:42:08;26.83;;;6.13;;
64297;SDS011;50639;53.270;7.956;2023-02-01T06:44:34;29.60;;;6.25;;
64297;SDS011;50639;53.270;7.956;2023-02-01T06:46:59;29.73;;;6.10;;
64297;SDS011;50639;53.270;7.956;2023-02-01T06:49:25;40.47;;;6.22;;
64297;SDS011;50639;53.270;7.956;2023-02-01T06:51:50;25.40;;;6.25;;
64297;SDS011;50639;53.270;7.956;2023-02-01T06:54:15;28.63;;;6.05;;
64297;SDS011;50639;53.270;7.956;2023-02-01T06:56:41;35.47;;;7.10;;
64297;SDS011;50639;53.270;7.956;2023-02-01T06:59:07;29.10;;;5.95;;
64297;SDS011;50639;53.270;7.956;2023-02-01T07:01:33;34.78;;;6.32;;
64297;SDS011;50639;53.270;7.956;2023-02-01T07:03:59;41.20;;;6.43;;
64297;SDS011;50639;53.270;7.956;2023-02-01T07:06:25;35.72;;;7.00;;
64297;SDS011;50639;53.270;7.956;2023-02-01T07:08:50;34.92;;;6.93;;
64297;SDS011;50639;53.270;7.956;2023-02-01T07:11:17;34.08;;;7.05;;
64297;SDS011;50639;53.270;7.956;2023-02-01T07:13:43;29.33;;;6.65;;
64297;SDS011;50639;53.270;7.956;2023-02-01T07:16:13;35.15;;;7.10;;
64297;SDS011;50639;53.270;7.956;2023-02-01T07:18:41;32.00;;;6.68;;
64297;SDS011;50639;53.270;7.956;2023-02-01T07:21:07;34.58;;;6.95;;
64297;SDS011;50639;53.270;7.956;2023-02-01T07:23:33;39.50;;;7.53;;
64297;SDS011;50639;53.270;7.956;2023-02-01T07:25:59;31.80;;;6.78;;
64297;SDS011;50639;53.270;7.956;2023-02-01T07:28:28;30.40;;;6.00;;
64297;SDS011;50639;53.270;7.956;2023-02-01T07:31:01;34.72;;;5.97;;
64297;SDS011;50639;53.270;7.956;2023-02-01T07:33:31;28.00;;;5.60;;
64297;SDS011;50639;53.270;7.956;2023-02-01T07:35:57;33.10;;;6.13;;
64297;SDS011;50639;53.270;7.956;2023-02-01T07:38:23;30.02;;;5.97;;
64297;SDS011;50639;53.270;7.956;2023-02-01T07:40:49;33.22;;;6.60;;
64297;SDS011;50639;53.270;7.956;2023-02-01T07:43:14;34.28;;;5.07;;
64297;SDS011;50639;53.270;7.956;2023-02-01T07:45:40;34.70;;;6.00;;
64297;SDS011;50639;53.270;7.956;2023-02-01T07:48:06;31.73;;;5.85;;
64297;SDS011;50639;53.270;7.956;2023-02-01T07:50:31;30.98;;;6.28;;
64297;SDS011;50639;53.270;7.956;2023-02-01T07:53:00;25.95;;;6.78;;
64297;SDS011;50639;53.270;7.956;2023-02-01T07:55:27;26.38;;;6.15;;
64297;SDS011;50639;53.270;7.956;2023-02-01T07:57:56;33.92;;;5.88;;
64297;SDS011;50639;53.270;7.956;2023-02-01T08:00:22;31.15;;;6.80;;
64297;SDS011;50639;53.270;7.956;2023-02-01T08:03:06;24.40;;;5.05;;
64297;SDS011;50639;53.270;7.956;2023-02-01T08:05:31;22.70;;;4.88;;
64297;SDS011;50639;53.270;7.956;2023-02-01T08:07:57;26.08;;;5.20;;
64297;SDS011;50639;53.270;7.956;2023-02-01T08:10:22;28.85;;;5.75;;
64297;SDS011;50639;53.270;7.956;2023-02-01T08:12:48;29.15;;;5.50;;
64297;SDS011;50639;53.270;7.956;2023-02-01T08:15:17;33.97;;;6.07;;
64297;SDS011;50639;53.270;7.956;2023-02-01T08:17:49;32.88;;;6.90;;
64297;SDS011;50639;53.270;7.956;2023-02-01T08:20:16;30.15;;;6.30;;
64297;SDS011;50639;53.270;7.956;2023-02-01T08:22:43;23.45;;;5.80;;
64297;SDS011;50639;53.270;7.956;2023-02-01T08:25:09;26.52;;;5.72;;
64297;SDS011;50639;53.270;7.956;2023-02-01T08:27:36;28.23;;;6.32;;
64297;SDS011;50639;53.270;7.956;2023-02-01T08:30:02;39.92;;;5.57;;
64297;SDS011;50639;53.270;7.956;2023-02-01T08:34:55;33.85;;;5.65;;
64297;SDS011;50639;53.270;7.956;2023-02-01T08:37:20;32.53;;;6.15;;
64297;SDS011;50639;53.270;7.956;2023-02-01T08:39:47;21.47;;;5.07;;
64297;SDS011;50639;53.270;7.956;2023-02-01T08:42:15;24.05;;;5.68;;
64297;SDS011;50639;53.270;7.956;2023-02-01T08:44:59;24.63;;;5.65;;
64297;SDS011;50639;53.270;7.956;2023-02-01T08:47:25;31.15;;;6.72;;
64297;SDS011;50639;53.270;7.956;2023-02-01T08:49:50;34.28;;;6.82;;
64297;SDS011;50639;53.270;7.956;2023-02-01T08:52:16;24.83;;;5.22;;
64297;SDS011;50639;53.270;7.956;2023-02-01T08:54:42;30.20;;;6.07;;
64297;SDS011;50639;53.270;7.956;2023-02-01T08:57:08;26.42;;;5.30;;
64297;SDS011;50639;53.270;7.956;2023-02-01T08:59:34;28.88;;;6.45;;
64297;SDS011;50639;53.270;7.956;2023-02-01T09:02:00;38.38;;;6.70;;
64297;SDS011;50639;53.270;7.956;2023-02-01T09:04:25;25.50;;;5.70;;
64297;SDS011;50639;53.270;7.956;2023-02-01T09:06:51;30.98;;;6.38;;
64297;SDS011;50639;53.270;7.956;2023-02-01T09:09:16;32.75;;;6.45;;
64297;SDS011;50639;53.270;7.956;2023-02-01T09:11:42;31.40;;;6.18;;
64297;SDS011;50639;53.270;7.956;2023-02-01T09:14:07;28.45;;;6.25;;
64297;SDS011;50639;53.270;7.956;2023-02-01T09:16:33;31.70;;;6.07;;
64297;SDS011;50639;53.270;7.956;2023-02-01T09:18:59;28.50;;;5.50;;
64297;SDS011;50639;53.270;7.956;2023-02-01T09:21:24;29.13;;;6.40;;
64297;SDS011;50639;53.270;7.956;2023-02-01T09:23:50;33.63;;;5.60;;
64297;SDS011;50639;53.270;7.956;2023-02-01T09:26:16;30.77;;;6.35;;
64297;SDS011;50639;53.270;7.956;2023-02-01T09:28:42;25.95;;;6.00;;
64297;SDS011;50639;53.270;7.956;2023-02-01T09:31:08;31.65;;;6.20;;
64297;SDS011;50639;53.270;7.956;2023-02-01T09:33:33;27.90;;;5.95;;
64297;SDS011;50639;53.270;7.956;2023-02-01T09:35:59;31.60;;;6.47;;
64297;SDS011;50639;53.270;7.956;2023-02-01T09:38:27;37.33;;;6.30;;
64297;SDS011;50639;53.270;7.956;2023-02-01T09:40:53;36.45;;;6.18;;
64297;SDS011;50639;53.270;7.956;2023-02-01T09:43:34;26.67;;;6.22;;
64297;SDS011;50639;53.270;7.956;2023-02-01T09:48:45;30.92;;;6.35;;
64297;SDS011;50639;53.270;7.956;2023-02-01T09:51:54;35.33;;;5.45;;
64297;SDS011;50639;53.270;7.956;2023-02-01T09:56:45;33.13;;;6.68;;
64297;SDS011;50639;53.270;7.956;2023-02-01T09:59:23;24.88;;;5.72;;
64297;SDS011;50639;53.270;7.956;2023-02-01T10:01:56;26.17;;;5.43;;
64297;SDS011;50639;53.270;7.956;2023-02-01T10:04:22;26.33;;;5.80;;
64297;SDS011;50639;53.270;7.956;2023-02-01T10:09:59;23.73;;;5.03;;
64297;SDS011;50639;53.270;7.956;2023-02-01T10:15:24;29.25;;;6.20;;
64297;SDS011;50639;53.270;7.956;2023-02-01T10:18:20;28.98;;;5.93;;
64297;SDS011;50639;53.270;7.956;2023-02-01T10:21:02;31.70;;;5.95;;
64297;SDS011;50639;53.270;7.956;2023-02-01T10:24:02;28.63;;;5.85;;
64297;SDS011;50639;53.270;7.956;2023-02-01T10:26:45;27.75;;;5.75;;
64297;SDS011;50639;53.270;7.956;2023-02-01T10:29:19;29.67;;;6.50;;
64297;SDS011;50639;53.270;7.956;2023-02-01T10:31:47;24.42;;;5.35;;
64297;SDS011;50639;53.270;7.956;2023-02-01T10:37:02;22.17;;;4.55;;
64297;SDS011;50639;53.270;7.956;2023-02-01T10:39:33;28.55;;;5.38;;
64297;SDS011;50639;53.270;7.956;2023-02-01T10:41:59;31.08;;;6.28;;
64297;SDS011;50639;53.270;7.956;2023-02-01T10:44:26;24.15;;;5.45;;
64297;SDS011;50639;53.270;7.956;2023-02-01T10:46:55;19.42;;;4.80;;
64297;SDS011;50639;53.270;7.956;2023-02-01T10:49:22;23.90;;;5.20;;
64297;SDS011;50639;53.270;7.956;2023-02-01T10:52:05;30.02;;;5.90;;
64297;SDS011;50639;53.270;7.956;2023-02-01T10:54:44;23.85;;;4.72;;
64297;SDS011;50639;53.270;7.956;2023-02-01T10:57:19;23.20;;;5.13;;
64297;SDS011;50639;53.270;7.956;2023-02-01T10:59:47;17.40;;;4.00;;
64297;SDS011;50639;53.270;7.956;2023-02-01T11:02:25;18.75;;;4.13;;
64297;SDS011;50639;53.270;7.956;2023-02-01T11:05:09;18.27;;;4.10;;
64297;SDS011;50639;53.270;7.956;2023-02-01T11:07:38;13.38;;;3.50;;
64297;SDS011;50639;53.270;7.956;2023-02-01T11:10:33;24.27;;;4.15;;
64297;SDS011;50639;53.270;7.956;2023-02-01T11:13:11;20.38;;;3.92;;
64297;SDS011;50639;53.270;7.956;2023-02-01T11:15:45;19.80;;;4.10;;
64297;SDS011;50639;53.270;7.956;2023-02-01T11:18:16;22.13;;;4.07;;
64297;SDS011;50639;53.270;7.956;2023-02-01T11:20:43;17.50;;;4.25;;
64297;SDS011;50639;53.270;7.956;2023-02-01T11:23:15;22.85;;;3.95;;
64297;SDS011;50639;53.270;7.956;2023-02-01T11:28:37;18.75;;;4.13;;
64297;SDS011;50639;53.270;7.956;2023-02-01T11:31:06;17.38;;;4.13;;
64297;SDS011;50639;53.270;7.956;2023-02-01T11:33:37;20.50;;;3.97;;
64297;SDS011;50639;53.270;7.956;2023-02-01T11:36:09;20.30;;;5.07;;
64297;SDS011;50639;53.270;7.956;2023-02-01T11:38:52;24.58;;;4.82;;
64297;SDS011;50639;53.270;7.956;2023-02-01T11:41:42;19.27;;;4.38;;
64297;SDS011;50639;53.270;7.956;2023-02-01T11:44:51;16.95;;;3.20;;
64297;SDS011;50639;53.270;7.956;2023-02-01T11:47:21;35.05;;;2.78;;
64297;SDS011;50639;53.270;7.956;2023-02-01T11:49:48;9.32;;;1.90;;
64297;SDS011;50639;53.270;7.956;2023-02-01T12:03:23;6.50;;;1.40;;
64297;SDS011;50639;53.270;7.956;2023-02-01T12:05:56;3.85;;;1.08;;
64297;SDS011;50639;53.270;7.956;2023-02-01T12:22:53;7.63;;;1.95;;
64297;SDS011;50639;53.270;7.956;2023-02-01T12:33:50;5.95;;;1.63;;
64297;SDS011;50639;53.270;7.956;2023-02-01T12:42:32;7.28;;;2.10;;
64297;SDS011;50639;53.270;7.956;2023-02-01T12:45:13;3.92;;;1.90;;
64297;SDS011;50639;53.270;7.956;2023-02-01T12:47:54;6.93;;;1.90;;
64297;SDS011;50639;53.270;7.956;2023-02-01T12:53:30;14.57;;;2.50;;
64297;SDS011;50639;53.270;7.956;2023-02-01T12:56:01;6.75;;;2.13;;
64297;SDS011;50639;53.270;7.956;2023-02-01T13:01:25;10.07;;;1.83;;
64297;SDS011;50639;53.270;7.956;2023-02-01T13:07:04;11.00;;;3.08;;
64297;SDS011;50639;53.270;7.956;2023-02-01T13:09:44;11.43;;;2.60;;
64297;SDS011;50639;53.270;7.956;2023-02-01T13:12:15;13.00;;;2.63;;
64297;SDS011;50639;53.270;7.956;2023-02-01T13:14:49;11.05;;;2.72;;
64297;SDS011;50639;53.270;7.956;2023-02-01T13:17:21;8.23;;;2.42;;
64297;SDS011;50639;53.270;7.956;2023-02-01T13:19:54;6.03;;;2.20;;
64297;SDS011;50639;53.270;7.956;2023-02-01T13:22:29;9.70;;;2.28;;
64297;SDS011;50639;53.270;7.956;2023-02-01T13:24:58;15.43;;;2.58;;
64297;SDS011;50639;53.270;7.956;2023-02-01T13:27:27;21.60;;;3.22;;
64297;SDS011;50639;53.270;7.956;2023-02-01T13:30:03;15.52;;;2.58;;
64297;SDS011;50639;53.270;7.956;2023-02-01T13:35:52;15.38;;;2.95;;
64297;SDS011;50639;53.270;7.956;2023-02-01T13:43:55;19.50;;;4.30;;
64297;SDS011;50639;53.270;7.956;2023-02-01T13:46:26;24.48;;;4.63;;
64297;SDS011;50639;53.270;7.956;2023-02-01T13:48:57;24.37;;;4.87;;
64297;SDS011;50639;53.270;7.956;2023-02-01T13:51:43;26.48;;;5.20;;
64297;SDS011;50639;53.270;7.956;2023-02-01T13:57:30;21.48;;;5.18;;
64297;SDS011;50639;53.270;7.956;2023-02-01T14:00:06;19.17;;;3.97;;
64297;SDS011;50639;53.270;7.956;2023-02-01T14:05:11;26.13;;;5.40;;
64297;SDS011;50639;53.270;7.956;2023-02-01T14:23:45;30.23;;;5.22;;
64297;SDS011;50639;53.270;7.956;2023-02-01T14:26:13;32.53;;;6.03;;
64297;SDS011;50639;53.270;7.956;2023-02-01T14:28:43;28.10;;;5.47;;
64297;SDS011;50639;53.270;7.956;2023-02-01T14:31:17;22.02;;;5.43;;
64297;SDS011;50639;53.270;7.956;2023-02-01T14:34:11;27.85;;;5.85;;
64297;SDS011;50639;53.270;7.956;2023-02-01T14:36:50;29.20;;;7.20;;
64297;SDS011;50639;53.270;7.956;2023-02-01T14:39:31;29.35;;;6.93;;
64297;SDS011;50639;53.270;7.956;2023-02-01T14:42:02;37.67;;;7.50;;
64297;SDS011;50639;53.270;7.956;2023-02-01T14:44:32;35.10;;;6.53;;
64297;SDS011;50639;53.270;7.956;2023-02-01T14:47:02;29.45;;;5.28;;
64297;SDS011;50639;53.270;7.956;2023-02-01T14:49:34;28.67;;;5.63;;
64297;SDS011;50639;53.270;7.956;2023-02-01T14:52:05;26.55;;;5.43;;
64297;SDS011;50639;53.270;7.956;2023-02-01T14:54:35;29.30;;;6.35;;
64297;SDS011;50639;53.270;7.956;2023-02-01T14:57:01;31.95;;;6.50;;
64297;SDS011;50639;53.270;7.956;2023-02-01T14:59:27;30.17;;;6.13;;
64297;SDS011;50639;53.270;7.956;2023-02-01T15:01:58;31.48;;;6.75;;
64297;SDS011;50639;53.270;7.956;2023-02-01T15:04:26;36.75;;;6.32;;
64297;SDS011;50639;53.270;7.956;2023-02-01T15:06:56;29.95;;;7.07;;
64297;SDS011;50639;53.270;7.956;2023-02-01T15:09:37;36.08;;;6.30;;
64297;SDS011;50639;53.270;7.956;2023-02-01T15:17:50;34.38;;;6.25;;
64297;SDS011;50639;53.270;7.956;2023-02-01T15:20:27;38.25;;;6.50;;
64297;SDS011;50639;53.270;7.956;2023-02-01T15:25:26;30.40;;;6.53;;
64297;SDS011;50639;53.270;7.956;2023-02-01T15:27:53;37.15;;;6.30;;
64297;SDS011;50639;53.270;7.956;2023-02-01T15:30:24;25.33;;;6.78;;
64297;SDS011;50639;53.270;7.956;2023-02-01T15:32:51;25.10;;;5.80;;
64297;SDS011;50639;53.270;7.956;2023-02-01T15:41:02;14.63;;;2.90;;
64297;SDS011;50639;53.270;7.956;2023-02-01T15:43:31;14.73;;;3.25;;
64297;SDS011;50639;53.270;7.956;2023-02-01T15:46:02;13.57;;;3.25;;
64297;SDS011;50639;53.270;7.956;2023-02-01T15:48:38;20.58;;;3.90;;
64297;SDS011;50639;53.270;7.956;2023-02-01T15:51:11;17.83;;;4.18;;
64297;SDS011;50639;53.270;7.956;2023-02-01T15:53:39;22.67;;;4.53;;
64297;SDS011;50639;53.270;7.956;2023-02-01T15:56:10;16.92;;;4.32;;
64297;SDS011;50639;53.270;7.956;2023-02-01T15:58:35;21.65;;;3.88;;
64297;SDS011;50639;53.270;7.956;2023-02-01T16:01:02;18.98;;;4.28;;
64297;SDS011;50639;53.270;7.956;2023-02-01T16:03:39;18.70;;;4.05;;
64297;SDS011;50639;53.270;7.956;2023-02-01T16:06:10;20.13;;;4.70;;
64297;SDS011;50639;53.270;7.956;2023-02-01T16:13:52;26.00;;;5.30;;
64297;SDS011;50639;53.270;7.956;2023-02-01T16:16:18;27.45;;;5.82;;
64297;SDS011;50639;53.270;7.956;2023-02-01T16:18:43;30.13;;;6.68;;
64297;SDS011;50639;53.270;7.956;2023-02-01T16:21:09;35.97;;;7.05;;
64297;SDS011;50639;53.270;7.956;2023-02-01T16:23:35;29.80;;;5.78;;
64297;SDS011;50639;53.270;7.956;2023-02-01T16:26:02;25.83;;;5.75;;
64297;SDS011;50639;53.270;7.956;2023-02-01T16:28:28;27.25;;;5.78;;
64297;SDS011;50639;53.270;7.956;2023-02-01T16:30:54;31.30;;;5.57;;
64297;SDS011;50639;53.270;7.956;2023-02-01T16:33:20;27.42;;;5.68;;
64297;SDS011;50639;53.270;7.956;2023-02-01T16:35:49;31.15;;;5.93;;
64297;SDS011;50639;53.270;7.956;2023-02-01T16:38:17;30.87;;;5.83;;
64297;SDS011;50639;53.270;7.956;2023-02-01T16:40:46;36.30;;;6.82;;
64297;SDS011;50639;53.270;7.956;2023-02-01T16:43:16;30.05;;;6.65;;
64297;SDS011;50639;53.270;7.956;2023-02-01T16:45:46;31.02;;;5.72;;
64297;SDS011;50639;53.270;7.956;2023-02-01T16:50:52;29.58;;;6.07;;
64297;SDS011;50639;53.270;7.956;2023-02-01T16:53:28;34.45;;;6.15;;
64297;SDS011;50639;53.270;7.956;2023-02-01T16:55:55;31.30;;;6.25;;
64297;SDS011;50639;53.270;7.956;2023-02-01T16:58:22;28.10;;;5.15;;
64297;SDS011;50639;53.270;7.956;2023-02-01T17:00:49;26.88;;;5.15;;
64297;SDS011;50639;53.270;7.956;2023-02-01T17:03:16;29.97;;;5.43;;
64297;SDS011;50639;53.270;7.956;2023-02-01T17:05:45;29.83;;;5.80;;
64297;SDS011;50639;53.270;7.956;2023-02-01T17:08:14;25.50;;;5.28;;
64297;SDS011;50639;53.270;7.956;2023-02-01T17:10:44;24.65;;;5.13;;
64297;SDS011;50639;53.270;7.956;2023-02-01T17:13:14;23.55;;;5.20;;
64297;SDS011;50639;53.270;7.956;2023-02-01T17:15:44;26.02;;;5.72;;
64297;SDS011;50639;53.270;7.956;2023-02-01T17:18:15;20.02;;;4.85;;
64297;SDS011;50639;53.270;7.956;2023-02-01T17:20:43;34.90;;;6.13;;
64297;SDS011;50639;53.270;7.956;2023-02-01T17:23:09;28.73;;;5.78;;
64297;SDS011;50639;53.270;7.956;2023-02-01T17:25:34;26.67;;;5.25;;
64297;SDS011;50639;53.270;7.956;2023-02-01T17:28:00;25.55;;;5.07;;
64297;SDS011;50639;53.270;7.956;2023-02-01T17:30:25;32.58;;;6.90;;
64297;SDS011;50639;53.270;7.956;2023-02-01T17:32:51;34.13;;;6.82;;
64297;SDS011;50639;53.270;7.956;2023-02-01T17:35:21;26.83;;;5.63;;
64297;SDS011;50639;53.270;7.956;2023-02-01T17:37:48;26.88;;;5.82;;
64297;SDS011;50639;53.270;7.956;2023-02-01T17:40:14;28.08;;;5.88;;